createdAt,value
2018-12-20T00:00:49.613Z,74.00
2018-12-20T00:03:17.187Z,70.20
2018-12-20T00:05:44.794Z,81.53
2018-12-20T00:08:12.608Z,82.60
2018-12-20T00:10:40.248Z,77.40
2018-12-20T00:13:08.026Z,80.20
2018-12-20T00:15:35.619Z,79.60
2018-12-20T00:18:03.092Z,83.30
2018-12-20T00:20:30.678Z,82.90
2018-12-20T00:22:58.258Z,74.70
2018-12-20T00:25:25.872Z,80.33
2018-12-20T00:27:53.659Z,90.47
2018-12-20T00:30:21.304Z,85.20
2018-12-20T00:32:48.819Z,81.57
2018-12-20T00:35:16.409Z,81.67
2018-12-20T00:37:44.078Z,71.50
2018-12-20T00:40:11.658Z,76.50
2018-12-20T00:42:39.170Z,76.30
2018-12-20T00:45:06.919Z,73.67
2018-12-20T00:47:34.484Z,72.97
2018-12-20T00:50:02.290Z,80.10
2018-12-20T00:52:29.876Z,77.83
2018-12-20T00:54:57.563Z,81.77
2018-12-20T00:57:25.143Z,76.67
2018-12-20T00:59:52.671Z,65.50
2018-12-20T01:02:20.156Z,76.50
2018-12-20T01:04:47.667Z,73.50
2018-12-20T01:07:15.270Z,71.03
2018-12-20T01:09:42.989Z,65.57
2018-12-20T01:12:10.830Z,71.60
2018-12-20T01:14:45.213Z,78.43
2018-12-20T01:17:07.970Z,81.67
2018-12-20T01:19:35.462Z,69.73
2018-12-20T01:22:02.939Z,79.33
2018-12-20T01:24:30.580Z,89.37
2018-12-20T01:26:59.306Z,77.03
2018-12-20T01:29:26.871Z,82.37
2018-12-20T01:31:54.395Z,79.37
2018-12-20T01:34:22.058Z,83.47
2018-12-20T01:36:49.764Z,95.53
2018-12-20T01:39:17.340Z,94.00
2018-12-20T01:41:45.053Z,95.87
2018-12-20T01:44:12.693Z,86.63
2018-12-20T01:46:40.317Z,81.53
2018-12-20T01:49:07.915Z,97.57
2018-12-20T01:51:35.409Z,104.50
2018-12-20T01:54:03.143Z,94.43
2018-12-20T01:56:30.767Z,96.53
2018-12-20T01:58:58.342Z,87.00
2018-12-20T02:01:26.093Z,90.50
2018-12-20T02:03:53.738Z,97.70
2018-12-20T02:06:21.298Z,93.47
2018-12-20T02:08:49.693Z,99.43
2018-12-20T02:11:20.997Z,95.50
2018-12-20T02:13:48.499Z,92.43
2018-12-20T02:16:16.106Z,94.55
2018-12-20T02:18:43.781Z,93.13
2018-12-20T02:21:11.286Z,99.80
2018-12-20T02:23:38.776Z,99.20
2018-12-20T02:26:06.397Z,87.03
2018-12-20T02:28:39.805Z,86.90
2018-12-20T02:31:07.516Z,81.97
2018-12-20T02:33:35.545Z,84.40
2018-12-20T02:36:03.295Z,79.53
2018-12-20T02:38:34.392Z,83.53
2018-12-20T02:41:02.035Z,78.87
2018-12-20T02:43:29.738Z,71.83
2018-12-20T02:45:57.372Z,81.17
2018-12-20T02:48:24.840Z,68.80
2018-12-20T02:50:52.491Z,89.50
2018-12-20T02:53:23.339Z,76.03
2018-12-20T02:55:50.930Z,82.90
2018-12-20T02:58:18.452Z,90.27
2018-12-20T03:00:46.781Z,77.27
2018-12-20T03:03:14.299Z,77.60
2018-12-20T03:05:42.203Z,77.50
2018-12-20T03:08:10.309Z,78.73
2018-12-20T03:10:38.017Z,72.63
2018-12-20T03:13:05.906Z,73.67
2018-12-20T03:15:33.577Z,78.63
2018-12-20T03:18:01.488Z,67.47
2018-12-20T03:20:29.331Z,64.80
2018-12-20T03:22:57.133Z,65.63
2018-12-20T03:25:24.807Z,63.90
2018-12-20T03:27:52.376Z,71.83
2018-12-20T03:30:20.073Z,68.17
2018-12-20T03:32:47.688Z,68.33
2018-12-20T03:35:15.333Z,56.13
2018-12-20T03:37:43.054Z,65.77
2018-12-20T03:40:10.772Z,62.20
2018-12-20T03:42:38.701Z,61.85
2018-12-20T03:45:06.658Z,62.60
2018-12-20T03:47:34.227Z,63.70
2018-12-20T03:50:01.821Z,65.87
2018-12-20T03:52:29.335Z,61.63
2018-12-20T03:54:56.977Z,49.10
2018-12-20T03:57:24.716Z,63.80
2018-12-20T03:59:58.786Z,51.00
2018-12-20T04:02:26.415Z,58.77
2018-12-20T04:04:54.080Z,55.60
2018-12-20T04:07:21.658Z,60.27
2018-12-20T04:09:49.191Z,62.20
2018-12-20T04:12:16.858Z,50.20
2018-12-20T04:14:44.367Z,55.93
2018-12-20T04:17:11.998Z,51.07
2018-12-20T04:19:39.510Z,59.90
2018-12-20T04:22:07.048Z,60.00
2018-12-20T04:24:42.660Z,57.00
2018-12-20T04:27:10.459Z,46.33
2018-12-20T04:29:38.138Z,57.10
2018-12-20T04:32:05.714Z,51.50
2018-12-20T04:34:33.332Z,58.77
2018-12-20T04:37:01.316Z,57.40
2018-12-20T04:39:29.070Z,56.57
2018-12-20T04:41:56.675Z,53.63
2018-12-20T04:44:24.307Z,52.90
2018-12-20T04:46:52.559Z,54.50
2018-12-20T04:49:20.107Z,56.50
2018-12-20T04:51:47.681Z,61.73
2018-12-20T04:54:15.348Z,65.30
2018-12-20T04:56:43.106Z,51.60
2018-12-20T04:59:10.803Z,58.07
2018-12-20T05:01:41.745Z,63.37
2018-12-20T05:04:09.490Z,59.10
2018-12-20T05:06:37.126Z,54.90
2018-12-20T05:09:07.171Z,49.70
2018-12-20T05:11:38.082Z,56.33
2018-12-20T05:14:05.707Z,56.40
2018-12-20T05:16:33.317Z,62.70
2018-12-20T05:19:00.860Z,57.10
2018-12-20T05:21:28.485Z,60.30
2018-12-20T05:23:56.088Z,63.10
2018-12-20T05:26:23.869Z,56.20
2018-12-20T05:28:51.463Z,63.70
2018-12-20T05:31:22.831Z,58.97
2018-12-20T05:33:50.317Z,59.90
2018-12-20T05:36:18.157Z,55.80
2018-12-20T05:38:46.057Z,53.25
2018-12-20T05:41:19.277Z,62.07
2018-12-20T05:43:46.935Z,56.90
2018-12-20T05:46:14.576Z,64.10
2018-12-20T05:48:42.329Z,51.73
2018-12-20T05:51:16.299Z,57.90
2018-12-20T05:53:43.989Z,53.60
2018-12-20T05:56:11.714Z,54.83
2018-12-20T05:58:39.272Z,53.37
2018-12-20T06:01:06.885Z,53.05
2018-12-20T06:03:34.540Z,63.10
2018-12-20T06:06:02.182Z,53.43
2018-12-20T06:08:29.721Z,55.40
2018-12-20T06:10:57.340Z,61.80
2018-12-20T06:13:25.196Z,60.50
2018-12-20T06:15:52.981Z,53.43
2018-12-20T06:18:20.518Z,56.00
2018-12-20T06:20:48.043Z,54.27
2018-12-20T06:23:15.565Z,53.50
2018-12-20T06:25:43.070Z,57.40
2018-12-20T06:28:10.586Z,54.60
2018-12-20T06:30:38.187Z,52.97
2018-12-20T06:33:05.689Z,53.83
2018-12-20T06:35:33.237Z,63.93
2018-12-20T06:38:00.810Z,57.70
2018-12-20T06:40:28.367Z,46.47
2018-12-20T06:42:55.942Z,57.30
2018-12-20T06:47:50.521Z,61.75
2018-12-20T07:09:56.359Z,48.35
2018-12-20T07:12:23.881Z,47.10
2018-12-20T07:14:51.415Z,56.95
2018-12-20T07:17:19.555Z,49.70
2018-12-20T07:19:47.170Z,49.43
2018-12-20T14:27:36.046Z,7.50
2018-12-20T14:30:05.807Z,7.80
2018-12-20T14:32:33.777Z,12.90
2018-12-20T14:35:02.392Z,10.50
2018-12-20T14:37:30.130Z,8.37
2018-12-20T14:39:58.010Z,9.60
2018-12-20T14:42:25.865Z,9.40
2018-12-20T14:44:53.633Z,9.80
2018-12-20T14:47:22.165Z,9.30
2018-12-20T14:49:50.119Z,9.10
2018-12-20T14:52:17.976Z,12.50
2018-12-20T14:54:45.812Z,9.65
2018-12-20T14:57:13.696Z,9.40
2018-12-20T14:59:41.485Z,6.95
2018-12-20T15:02:09.333Z,11.70
2018-12-20T15:04:36.972Z,13.35
2018-12-20T15:07:04.639Z,12.43
2018-12-20T15:09:36.141Z,15.43
2018-12-20T15:12:03.839Z,8.23
2018-12-20T15:14:31.380Z,13.97
2018-12-20T15:17:01.028Z,9.47
2018-12-20T15:19:28.921Z,10.73
2018-12-20T15:53:18.638Z,7.53
2018-12-20T15:55:46.169Z,10.17
2018-12-20T16:00:43.133Z,11.43
2018-12-20T16:14:24.852Z,12.37
2018-12-20T16:19:20.764Z,10.10
2018-12-20T16:21:48.302Z,15.93
2018-12-20T16:24:16.282Z,11.33
2018-12-20T16:26:45.022Z,16.83
2018-12-20T16:29:13.658Z,12.53
2018-12-20T16:31:42.141Z,10.93
2018-12-20T16:34:09.826Z,10.43
2018-12-20T16:36:38.463Z,8.87
2018-12-20T16:39:06.934Z,9.17
2018-12-20T16:41:35.162Z,20.63
2018-12-20T16:44:04.285Z,10.60
2018-12-20T16:46:32.576Z,10.00
2018-12-20T16:49:00.334Z,9.70
2018-12-20T16:51:28.042Z,7.93
2018-12-20T16:53:55.842Z,12.03
2018-12-20T16:56:23.666Z,17.87
2018-12-20T16:58:51.268Z,11.93
2018-12-20T17:01:18.875Z,7.33
2018-12-20T17:03:46.545Z,8.10
2018-12-20T17:06:14.256Z,12.20
2018-12-20T17:08:48.101Z,12.13
2018-12-20T17:11:11.372Z,12.20
2018-12-20T17:13:39.116Z,12.47
2018-12-20T17:16:06.822Z,18.60
2018-12-20T17:18:34.385Z,9.73
2018-12-20T17:21:01.914Z,15.53
2018-12-20T17:23:35.614Z,9.63
2018-12-20T17:25:59.315Z,12.37
2018-12-20T17:28:27.322Z,12.80
2018-12-20T17:30:54.973Z,15.40
2018-12-20T17:33:22.547Z,9.10
2018-12-20T17:35:50.031Z,13.37
2018-12-20T17:38:17.552Z,12.10
2018-12-20T17:40:45.138Z,10.90
2018-12-20T17:43:12.810Z,10.17
2018-12-20T17:45:41.131Z,9.90
2018-12-20T17:48:08.752Z,11.23
2018-12-20T17:50:36.314Z,10.40
2018-12-20T17:53:03.802Z,9.70
2018-12-20T17:55:31.261Z,17.93
2018-12-20T17:57:59.001Z,8.20
2018-12-20T18:00:26.571Z,8.00
2018-12-20T18:02:54.282Z,9.83
2018-12-20T18:05:21.900Z,26.63
2018-12-20T18:07:49.629Z,11.83
2018-12-20T18:10:17.244Z,9.43
2018-12-20T18:12:44.718Z,11.67
2018-12-20T18:15:12.288Z,11.23
2018-12-20T18:17:39.821Z,15.83
2018-12-20T18:20:08.087Z,13.47
2018-12-20T18:22:35.573Z,12.77
2018-12-20T18:25:03.148Z,12.30
2018-12-20T18:27:30.629Z,13.77
2018-12-20T18:29:58.340Z,12.60
2018-12-20T18:32:26.023Z,12.83
2018-12-20T18:34:53.537Z,11.70
2018-12-20T18:37:21.190Z,14.70
2018-12-20T18:39:48.682Z,10.63
2018-12-20T18:42:16.199Z,12.87
2018-12-20T18:44:43.842Z,11.10
2018-12-20T18:47:11.327Z,12.23
2018-12-20T18:49:38.823Z,11.57
2018-12-20T18:52:06.315Z,10.70
2018-12-20T18:54:33.871Z,9.23
2018-12-20T18:57:01.356Z,10.00
2018-12-20T18:59:28.852Z,11.03
2018-12-20T19:01:56.390Z,13.27
2018-12-20T19:04:23.896Z,8.70
2018-12-20T19:06:51.622Z,9.97
2018-12-20T19:09:19.301Z,10.23
2018-12-20T19:11:47.272Z,8.87
2018-12-20T19:14:16.262Z,11.80
2018-12-20T19:16:43.958Z,10.33
2018-12-20T19:19:11.422Z,8.83
2018-12-20T19:21:38.950Z,9.00
2018-12-20T19:24:06.709Z,9.63
2018-12-20T19:26:34.167Z,10.90
2018-12-20T19:29:01.658Z,8.23
2018-12-20T19:31:29.139Z,9.73
2018-12-20T19:33:56.631Z,10.30
2018-12-20T19:36:25.162Z,17.10
2018-12-20T19:38:52.646Z,9.27
2018-12-20T19:41:20.156Z,8.93
2018-12-20T19:43:47.657Z,9.20
2018-12-20T19:46:15.148Z,8.50
2018-12-20T19:48:42.701Z,9.80
2018-12-20T19:51:10.171Z,10.27
2018-12-20T19:53:37.778Z,11.10
2018-12-20T19:56:05.337Z,13.80
2018-12-20T19:58:33.019Z,9.40
2018-12-20T20:01:00.547Z,11.50
2018-12-20T20:03:28.267Z,9.70
2018-12-20T20:05:55.924Z,11.63
2018-12-20T20:08:23.630Z,10.80
2018-12-20T20:10:51.140Z,11.20
2018-12-20T20:13:19.467Z,10.80
2018-12-20T20:15:47.185Z,9.27
2018-12-20T20:18:15.097Z,9.10
2018-12-20T20:20:43.357Z,10.30
2018-12-20T20:23:12.945Z,12.00
2018-12-20T20:25:40.478Z,8.20
2018-12-20T20:28:08.038Z,12.30
2018-12-20T20:30:35.537Z,11.47
2018-12-20T20:33:03.093Z,8.97
2018-12-20T20:35:32.928Z,9.73
2018-12-20T20:38:00.590Z,10.30
2018-12-20T20:40:28.099Z,10.23
2018-12-20T20:42:55.604Z,7.67
2018-12-20T20:45:24.182Z,7.70
2018-12-20T20:47:51.678Z,7.23
2018-12-20T20:50:22.646Z,7.50
2018-12-20T20:52:50.035Z,14.93
2018-12-20T20:55:18.906Z,6.87
2018-12-20T20:57:49.165Z,7.20
2018-12-20T21:00:17.294Z,6.10
2018-12-20T21:02:46.480Z,6.40
2018-12-20T21:05:14.146Z,8.37
2018-12-20T21:07:42.898Z,6.40
2018-12-20T21:10:11.099Z,9.90
2018-12-20T21:12:38.683Z,7.30
2018-12-20T21:15:08.416Z,7.87
2018-12-20T21:17:35.918Z,4.53
2018-12-20T21:20:04.345Z,15.67
2018-12-20T21:22:31.889Z,8.40
2018-12-20T21:24:59.407Z,7.10
2018-12-20T21:27:26.929Z,5.50
2018-12-20T21:29:54.443Z,6.43
2018-12-20T21:32:21.977Z,5.87
2018-12-20T21:34:49.462Z,6.13
2018-12-20T21:37:16.968Z,7.23
2018-12-20T21:39:44.453Z,6.13
2018-12-20T21:42:11.963Z,4.27
2018-12-20T21:44:39.562Z,3.70
2018-12-20T21:47:07.592Z,6.33
2018-12-20T21:49:35.420Z,6.60
2018-12-20T21:52:03.180Z,6.27
2018-12-20T21:54:30.664Z,6.00
2018-12-20T21:56:58.168Z,5.57
2018-12-20T21:59:26.841Z,5.00
2018-12-20T22:01:54.348Z,6.30
2018-12-20T22:04:21.838Z,12.00
2018-12-20T22:06:49.350Z,4.97
2018-12-20T22:09:16.866Z,10.50
2018-12-20T22:11:44.524Z,2.93
2018-12-20T22:14:12.089Z,3.07
2018-12-20T22:16:39.565Z,3.93
2018-12-20T22:19:07.092Z,2.83
2018-12-20T22:21:34.594Z,3.73
2018-12-20T22:24:02.241Z,2.50
2018-12-20T22:26:29.763Z,10.70
2018-12-20T22:28:57.274Z,2.87
2018-12-20T22:31:24.777Z,2.87
2018-12-20T22:33:52.243Z,2.70
2018-12-20T22:36:19.746Z,2.73
2018-12-20T22:38:47.261Z,3.23
2018-12-20T22:41:14.873Z,3.10
2018-12-20T22:43:42.472Z,5.13
2018-12-20T22:46:11.191Z,2.90
2018-12-20T22:48:38.828Z,2.60
2018-12-20T22:51:06.333Z,3.80
2018-12-20T22:53:33.856Z,3.30
2018-12-20T22:56:01.340Z,3.77
2018-12-20T22:58:28.815Z,3.47
2018-12-20T23:00:56.303Z,3.60
2018-12-20T23:03:23.822Z,3.47
2018-12-20T23:05:51.375Z,4.07
2018-12-20T23:08:18.903Z,4.90
2018-12-20T23:10:46.374Z,4.13
2018-12-20T23:13:13.880Z,3.93
2018-12-20T23:15:41.374Z,9.80
2018-12-20T23:18:08.854Z,3.40
2018-12-20T23:20:36.451Z,4.27
2018-12-20T23:23:03.932Z,6.83
2018-12-20T23:25:31.425Z,4.50
2018-12-20T23:27:58.893Z,8.40
2018-12-20T23:30:26.396Z,5.70
2018-12-20T23:32:53.886Z,5.50
2018-12-20T23:35:21.477Z,4.03
2018-12-20T23:37:48.971Z,4.13
2018-12-20T23:40:16.450Z,4.40
2018-12-20T23:42:43.961Z,5.90
2018-12-20T23:45:11.532Z,5.00
2018-12-20T23:47:39.012Z,8.80
2018-12-20T23:50:06.495Z,7.50
2018-12-20T23:52:33.994Z,5.27
2018-12-20T23:55:01.536Z,5.40
2018-12-20T23:57:29.032Z,4.40
2018-12-20T23:59:56.564Z,7.17
